createdAt,value
2023-04-10T00:00:56.975Z,54.30
2023-04-10T00:03:25.152Z,56.07
2023-04-10T00:05:54.758Z,55.97
2023-04-10T00:08:24.181Z,56.27
2023-04-10T00:10:51.922Z,55.87
2023-04-10T00:13:19.640Z,53.17
2023-04-10T00:15:47.396Z,54.40
2023-04-10T00:18:15.438Z,57.87
2023-04-10T00:20:43.809Z,55.17
2023-04-10T00:23:11.502Z,56.83
2023-04-10T00:25:40.617Z,54.17
2023-04-10T00:28:08.386Z,57.27
2023-04-10T00:30:36.125Z,57.90
2023-04-10T00:33:03.991Z,54.70
2023-04-10T00:35:31.845Z,55.13
2023-04-10T00:37:59.624Z,57.33
2023-04-10T00:40:27.476Z,57.20
2023-04-10T00:42:56.510Z,59.60
2023-04-10T00:45:24.398Z,58.73
2023-04-10T00:47:52.763Z,56.03
2023-04-10T00:50:21.132Z,57.70
2023-04-10T00:52:49.336Z,57.73
2023-04-10T00:55:17.166Z,59.23
2023-04-10T00:57:47.113Z,57.33
2023-04-10T01:00:17.482Z,59.07
2023-04-10T01:02:45.549Z,57.27
2023-04-10T01:05:13.887Z,57.63
2023-04-10T01:07:53.789Z,56.60
2023-04-10T01:10:28.540Z,59.97
2023-04-10T01:13:05.574Z,58.43
2023-04-10T01:15:40.199Z,58.13
2023-04-10T01:18:12.540Z,58.00
2023-04-10T01:20:41.301Z,59.43
2023-04-10T01:23:32.543Z,59.53
2023-04-10T01:26:01.197Z,60.17
2023-04-10T01:28:44.569Z,62.10
2023-04-10T01:31:15.595Z,63.10
2023-04-10T01:33:47.712Z,59.00
2023-04-10T01:36:21.889Z,61.47
2023-04-10T01:38:50.907Z,59.53
2023-04-10T01:41:19.971Z,57.50
2023-04-10T01:43:50.648Z,60.37
2023-04-10T01:46:20.573Z,58.77
2023-04-10T01:48:48.621Z,56.37
2023-04-10T01:51:17.091Z,60.70
2023-04-10T01:53:46.057Z,61.47
2023-04-10T01:56:14.195Z,57.87
2023-04-10T01:58:42.107Z,58.07
2023-04-10T02:01:22.515Z,58.00
2023-04-10T02:03:56.904Z,56.87
2023-04-10T02:06:31.988Z,58.77
2023-04-10T02:09:03.885Z,56.70
2023-04-10T02:11:37.129Z,57.70
2023-04-10T02:14:07.051Z,56.80
2023-04-10T02:16:37.921Z,54.87
2023-04-10T02:19:06.964Z,57.90
2023-04-10T02:21:35.221Z,55.57
2023-04-10T02:24:02.906Z,55.20
2023-04-10T02:26:30.765Z,56.33
2023-04-10T02:28:58.432Z,55.80
2023-04-10T02:31:26.144Z,55.57
2023-04-10T02:33:55.512Z,54.37
2023-04-10T02:36:23.336Z,54.13
2023-04-10T02:38:51.117Z,53.77
2023-04-10T02:41:18.831Z,57.83
2023-04-10T02:43:46.577Z,53.20
2023-04-10T02:46:14.238Z,53.20
2023-04-10T02:48:41.985Z,54.00
2023-04-10T02:51:11.043Z,51.63
2023-04-10T02:53:38.766Z,53.43
2023-04-10T02:56:08.137Z,50.83
2023-04-10T02:58:36.123Z,52.93
2023-04-10T03:01:04.046Z,50.17
2023-04-10T03:03:31.811Z,48.63
2023-04-10T03:05:59.586Z,51.30
2023-04-10T03:08:30.184Z,52.53
2023-04-10T03:10:57.897Z,51.07
2023-04-10T03:13:26.037Z,50.13
2023-04-10T03:15:53.849Z,51.03
2023-04-10T03:18:21.547Z,51.87
2023-04-10T03:20:49.960Z,50.20
2023-04-10T03:23:17.696Z,50.20
2023-04-10T03:25:50.931Z,50.50
2023-04-10T03:28:18.695Z,49.80
2023-04-10T03:30:46.450Z,50.90
2023-04-10T03:33:14.198Z,49.53
2023-04-10T03:35:42.056Z,48.67
2023-04-10T03:38:09.861Z,47.23
2023-04-10T03:40:37.770Z,49.77
2023-04-10T03:43:06.877Z,49.70
2023-04-10T03:45:34.660Z,47.50
2023-04-10T03:48:02.389Z,45.50
2023-04-10T03:50:30.498Z,44.47
2023-04-10T03:52:58.230Z,45.67
2023-04-10T03:55:25.921Z,45.50
2023-04-10T03:57:53.677Z,46.07
2023-04-10T04:00:22.851Z,44.83
2023-04-10T04:02:51.912Z,44.27
2023-04-10T04:05:20.043Z,44.50
2023-04-10T04:07:48.122Z,45.17
2023-04-10T04:10:15.986Z,48.27
2023-04-10T04:12:43.778Z,46.97
2023-04-10T04:15:12.090Z,47.20
2023-04-10T04:17:41.215Z,46.40
2023-04-10T04:20:09.988Z,47.30
2023-04-10T04:22:37.674Z,44.83
2023-04-10T04:25:08.912Z,46.90
2023-04-10T04:27:36.680Z,47.40
2023-04-10T04:30:04.707Z,48.47
2023-04-10T04:32:32.501Z,47.07
2023-04-10T04:35:01.623Z,49.47
2023-04-10T04:37:29.434Z,46.37
2023-04-10T04:39:57.080Z,47.60
2023-04-10T04:42:25.021Z,48.47
2023-04-10T04:44:52.918Z,46.90
2023-04-10T04:47:20.647Z,46.53
2023-04-10T04:49:48.424Z,48.83
2023-04-10T04:52:17.482Z,46.30
2023-04-10T04:54:45.460Z,48.33
2023-04-10T04:57:13.135Z,48.30
2023-04-10T04:59:40.821Z,46.87
2023-04-10T05:02:08.569Z,47.97
2023-04-10T05:04:36.326Z,47.80
2023-04-10T05:07:04.003Z,47.57
2023-04-10T05:09:33.029Z,47.70
2023-04-10T05:12:00.739Z,48.50
2023-04-10T05:14:28.426Z,46.00
2023-04-10T05:16:56.219Z,46.43
2023-04-10T05:19:23.926Z,47.73
2023-04-10T05:21:51.624Z,47.27
2023-04-10T05:24:19.290Z,48.63
2023-04-10T05:26:48.550Z,48.00
2023-04-10T05:29:16.248Z,45.73
2023-04-10T05:31:43.974Z,48.43
2023-04-10T05:34:11.839Z,46.57
2023-04-10T05:36:39.518Z,47.93
2023-04-10T05:39:07.177Z,46.93
2023-04-10T05:41:34.974Z,46.77
2023-04-10T05:44:04.056Z,46.73
2023-04-10T05:46:31.877Z,46.67
2023-04-10T05:48:59.680Z,43.87
2023-04-10T05:51:27.373Z,44.00
2023-04-10T05:53:55.199Z,43.43
2023-04-10T05:56:22.899Z,43.73
2023-04-10T05:58:50.654Z,43.90
2023-04-10T06:01:19.759Z,43.93
2023-04-10T06:03:47.792Z,41.20
2023-04-10T06:06:15.843Z,43.40
2023-04-10T06:08:43.518Z,43.20
2023-04-10T06:11:11.439Z,41.20
2023-04-10T06:13:39.194Z,43.70
2023-04-10T06:16:07.688Z,42.20
2023-04-10T06:18:36.898Z,41.50
2023-04-10T06:21:04.890Z,41.53
2023-04-10T06:23:32.629Z,37.90
2023-04-10T06:26:01.375Z,40.23
2023-04-10T06:28:29.050Z,41.43
2023-04-10T06:30:57.549Z,38.63
2023-04-10T06:33:26.394Z,38.40
2023-04-10T06:35:56.057Z,40.60
2023-04-10T06:38:23.803Z,38.73
2023-04-10T06:40:51.540Z,39.43
2023-04-10T06:43:19.252Z,36.67
2023-04-10T06:45:47.063Z,37.20
2023-04-10T06:48:15.141Z,37.97
2023-04-10T06:50:42.929Z,34.63
2023-04-10T06:53:12.103Z,33.37
2023-04-10T06:55:40.024Z,33.53
2023-04-10T06:58:07.730Z,33.53
2023-04-10T07:00:35.500Z,32.23
2023-04-10T07:03:03.231Z,32.47
2023-04-10T07:05:31.112Z,31.53
2023-04-10T07:07:58.811Z,31.40
2023-04-10T07:10:27.930Z,31.27
2023-04-10T07:12:57.220Z,28.87
2023-04-10T07:15:24.889Z,26.97
2023-04-10T07:17:52.828Z,27.47
2023-04-10T07:20:20.698Z,26.20
2023-04-10T07:22:48.463Z,24.53
2023-04-10T07:25:16.622Z,25.40
2023-04-10T07:27:45.690Z,24.43
2023-04-10T07:30:13.971Z,24.50
2023-04-10T07:32:42.379Z,24.70
2023-04-10T07:35:11.036Z,25.73
2023-04-10T07:37:39.757Z,23.60
2023-04-10T07:40:09.063Z,22.10
2023-04-10T07:42:36.922Z,21.60
2023-04-10T07:45:09.710Z,22.50
2023-04-10T07:47:37.444Z,21.53
2023-04-10T07:50:06.443Z,19.97
2023-04-10T07:52:34.133Z,19.50
2023-04-10T07:55:02.761Z,19.33
2023-04-10T07:57:32.170Z,19.37
2023-04-10T08:00:00.034Z,18.67
2023-04-10T08:02:29.305Z,17.53
2023-04-10T08:04:57.957Z,17.47
2023-04-10T08:07:26.000Z,17.37
2023-04-10T08:09:53.869Z,17.27
2023-04-10T08:12:21.625Z,17.00
2023-04-10T08:14:51.712Z,17.03
2023-04-10T08:17:19.672Z,17.10
2023-04-10T08:19:48.756Z,16.67
2023-04-10T08:22:16.568Z,16.73
2023-04-10T08:24:44.498Z,15.73
2023-04-10T08:27:12.363Z,17.20
2023-04-10T08:29:40.058Z,16.83
2023-04-10T08:32:07.764Z,17.00
2023-04-10T08:34:35.540Z,16.53
2023-04-10T08:37:10.589Z,16.93
2023-04-10T08:39:39.805Z,15.77
2023-04-10T08:42:07.780Z,15.77
2023-04-10T08:44:37.164Z,15.50
2023-04-10T08:47:05.150Z,15.63
2023-04-10T08:49:36.394Z,15.07
2023-04-10T08:52:08.103Z,15.37
2023-04-10T08:54:39.464Z,14.70
2023-04-10T08:57:09.811Z,14.37
2023-04-10T08:59:38.658Z,12.07
2023-04-10T09:02:07.407Z,12.40
2023-04-10T09:04:35.557Z,12.53
2023-04-10T09:07:03.356Z,11.53
2023-04-10T09:09:33.250Z,11.93
2023-04-10T09:12:02.634Z,11.40
2023-04-10T09:14:31.837Z,11.63
2023-04-10T09:17:13.081Z,10.70
2023-04-10T09:19:41.020Z,10.67
2023-04-10T09:22:09.008Z,11.83
2023-04-10T09:24:39.107Z,10.13
2023-04-10T09:27:07.231Z,11.47
2023-04-10T09:29:45.887Z,12.40
2023-04-10T09:32:13.757Z,11.23
2023-04-10T09:34:54.896Z,11.27
2023-04-10T09:37:22.849Z,11.47
2023-04-10T09:39:51.879Z,11.07
2023-04-10T09:42:31.411Z,10.97
2023-04-10T09:44:59.568Z,9.43
2023-04-10T09:47:27.418Z,9.17
2023-04-10T09:49:56.477Z,8.70
2023-04-10T09:52:26.388Z,7.83
2023-04-10T09:54:56.382Z,7.70
2023-04-10T09:57:25.936Z,7.40
2023-04-10T09:59:55.048Z,7.37
2023-04-10T10:02:24.097Z,8.43
2023-04-10T10:04:53.275Z,7.50
2023-04-10T10:07:22.375Z,7.13
2023-04-10T10:09:51.687Z,7.90
2023-04-10T10:12:24.938Z,6.73
2023-04-10T10:14:58.831Z,7.17
2023-04-10T10:17:31.581Z,6.60
2023-04-10T10:20:02.796Z,6.73
2023-04-10T10:22:30.643Z,6.47
2023-04-10T10:24:59.955Z,6.00
2023-04-10T10:27:30.036Z,6.83
2023-04-10T10:30:02.869Z,7.03
2023-04-10T10:32:33.324Z,6.27
2023-04-10T10:35:02.287Z,5.97
2023-04-10T10:37:30.644Z,5.70
2023-04-10T10:40:00.701Z,5.43
2023-04-10T10:42:35.724Z,5.40
2023-04-10T10:45:10.440Z,5.73
2023-04-10T10:47:42.081Z,4.63
2023-04-10T10:50:10.434Z,4.90
2023-04-10T10:52:49.716Z,4.60
2023-04-10T10:55:34.890Z,4.93
2023-04-10T10:58:06.202Z,4.90
2023-04-10T11:01:10.095Z,4.30
2023-04-10T11:03:38.590Z,4.20
2023-04-10T11:06:08.461Z,4.17
2023-04-10T11:08:45.837Z,4.10
2023-04-10T11:11:16.670Z,3.63
2023-04-10T11:14:17.973Z,3.40
2023-04-10T11:16:49.547Z,3.63
2023-04-10T11:19:23.680Z,4.60
2023-04-10T11:22:08.966Z,3.70
2023-04-10T11:25:00.047Z,3.97
2023-04-10T11:27:49.599Z,3.47
2023-04-10T11:30:29.380Z,3.73
2023-04-10T11:32:57.434Z,4.03
2023-04-10T11:35:25.286Z,4.00
2023-04-10T11:37:52.993Z,4.00
2023-04-10T11:40:21.181Z,3.90
2023-04-10T11:42:48.890Z,4.33
2023-04-10T11:45:30.871Z,3.93
2023-04-10T11:47:58.639Z,4.10
2023-04-10T11:50:32.237Z,4.27
2023-04-10T11:52:59.926Z,4.03
2023-04-10T11:55:38.337Z,4.17
2023-04-10T11:58:06.697Z,4.10
2023-04-10T12:00:35.761Z,3.70
2023-04-10T12:03:03.662Z,3.30
2023-04-10T12:05:46.671Z,4.10
2023-04-10T12:08:14.410Z,3.80
2023-04-10T12:10:50.987Z,3.77
2023-04-10T12:13:25.968Z,3.53
2023-04-10T12:15:55.316Z,4.00
2023-04-10T12:18:23.621Z,3.30
2023-04-10T12:20:56.201Z,3.50
2023-04-10T12:23:24.584Z,3.80
2023-04-10T12:25:53.200Z,3.50
2023-04-10T12:28:22.229Z,3.40
2023-04-10T12:30:52.791Z,3.40
2023-04-10T12:33:25.914Z,3.90
2023-04-10T12:35:54.298Z,3.70
2023-04-10T12:38:42.007Z,3.47
2023-04-10T12:41:11.203Z,3.17
2023-04-10T12:43:39.964Z,3.27
2023-04-10T12:46:09.439Z,3.20
2023-04-10T12:48:38.548Z,3.00
2023-04-10T12:51:06.523Z,3.50
2023-04-10T12:53:44.625Z,3.20
2023-04-10T12:56:12.432Z,3.20
2023-04-10T12:58:42.401Z,2.77
2023-04-10T13:01:10.680Z,3.23
2023-04-10T13:03:39.958Z,3.30
2023-04-10T13:06:08.592Z,3.03
2023-04-10T13:08:36.491Z,3.00
2023-04-10T13:11:04.198Z,3.23
2023-04-10T13:13:32.806Z,3.47
2023-04-10T13:16:00.768Z,2.90
2023-04-10T13:18:28.564Z,3.40
2023-04-10T13:20:57.635Z,2.80
2023-04-10T13:23:25.284Z,3.07
2023-04-10T13:25:53.549Z,2.77
2023-04-10T13:28:21.560Z,2.67
2023-04-10T13:30:49.255Z,3.03
2023-04-10T13:33:16.979Z,5.33
2023-04-10T13:35:44.708Z,5.97
2023-04-10T13:38:13.760Z,4.27
2023-04-10T13:40:41.421Z,8.07
2023-04-10T13:43:09.101Z,4.13
2023-04-10T13:45:36.803Z,3.07
2023-04-10T13:48:07.212Z,2.97
2023-04-10T13:50:35.206Z,3.47
2023-04-10T13:53:02.985Z,3.10
2023-04-10T13:55:32.098Z,3.07
2023-04-10T13:57:59.826Z,3.27
2023-04-10T14:00:27.742Z,3.20
2023-04-10T14:02:55.615Z,2.90
2023-04-10T14:05:23.509Z,3.03
2023-04-10T14:07:56.788Z,2.83
2023-04-10T14:10:24.494Z,2.83
2023-04-10T14:12:53.569Z,3.00
2023-04-10T14:15:21.287Z,2.70
2023-04-10T14:17:48.986Z,3.23
2023-04-10T14:20:16.711Z,6.20
2023-04-10T14:22:44.350Z,24.37
2023-04-10T14:25:15.713Z,3.97
2023-04-10T14:27:44.044Z,3.03
2023-04-10T14:30:13.796Z,2.77
2023-04-10T14:32:41.659Z,2.57
2023-04-10T14:35:10.633Z,3.00
2023-04-10T14:37:38.523Z,2.80
2023-04-10T14:40:07.498Z,3.00
2023-04-10T14:42:35.191Z,3.10
2023-04-10T14:45:03.104Z,4.10
2023-04-10T14:47:32.216Z,2.80
2023-04-10T14:49:59.961Z,2.60
2023-04-10T14:52:27.675Z,2.83
2023-04-10T14:54:55.421Z,2.90
2023-04-10T14:57:23.054Z,2.87
2023-04-10T14:59:50.762Z,2.90
2023-04-10T15:02:18.505Z,2.70
2023-04-10T15:04:47.682Z,3.07
2023-04-10T15:07:15.403Z,2.60
2023-04-10T15:09:44.463Z,2.60
2023-04-10T15:12:12.087Z,2.80
2023-04-10T15:14:39.829Z,3.13
2023-04-10T15:17:07.608Z,2.10
2023-04-10T15:19:35.480Z,2.70
2023-04-10T15:22:04.704Z,2.50
2023-04-10T15:24:39.896Z,2.80
2023-04-10T15:27:15.095Z,2.70
2023-04-10T15:29:43.967Z,2.77
2023-04-10T15:32:11.642Z,2.30
2023-04-10T15:34:39.330Z,2.33
2023-04-10T15:37:08.343Z,2.40
2023-04-10T15:39:37.110Z,2.40
2023-04-10T15:42:05.252Z,2.60
2023-04-10T15:44:33.003Z,2.37
2023-04-10T15:47:00.846Z,2.43
2023-04-10T15:49:37.057Z,2.70
2023-04-10T15:52:06.213Z,2.60
2023-04-10T15:54:35.868Z,2.40
2023-04-10T15:57:03.821Z,2.67
2023-04-10T15:59:31.837Z,2.60
2023-04-10T16:01:59.713Z,2.50
2023-04-10T16:04:27.591Z,2.53
2023-04-10T16:06:56.449Z,2.30
2023-04-10T16:09:26.401Z,2.40
2023-04-10T16:11:56.317Z,2.90
2023-04-10T16:14:24.081Z,2.60
2023-04-10T16:16:52.023Z,2.50
2023-04-10T16:19:19.819Z,2.33
2023-04-10T16:21:47.491Z,2.40
2023-04-10T16:24:15.469Z,2.43
2023-04-10T16:26:43.180Z,2.67
2023-04-10T16:29:12.202Z,2.67
2023-04-10T16:31:39.947Z,2.80
2023-04-10T16:34:07.655Z,2.80
2023-04-10T16:36:35.395Z,2.80
2023-04-10T16:39:03.118Z,3.00
2023-04-10T16:41:30.902Z,2.93
2023-04-10T16:43:58.566Z,2.53
2023-04-10T16:46:27.805Z,2.70
2023-04-10T16:48:55.659Z,2.93
2023-04-10T16:51:24.348Z,2.80
2023-04-10T16:53:52.110Z,2.70
2023-04-10T16:56:19.908Z,3.03
2023-04-10T16:58:47.588Z,3.10
2023-04-10T17:01:17.776Z,3.10
2023-04-10T17:03:47.537Z,3.47
2023-04-10T17:06:16.002Z,3.30
2023-04-10T17:08:43.951Z,3.80
2023-04-10T17:11:12.529Z,3.83
2023-04-10T17:13:40.542Z,4.10
2023-04-10T17:16:09.411Z,4.23
2023-04-10T17:18:37.569Z,4.43
2023-04-10T17:21:07.444Z,4.00
2023-04-10T17:23:35.218Z,4.37
2023-04-10T17:26:05.605Z,5.03
2023-04-10T17:28:33.809Z,4.27
2023-04-10T17:31:01.794Z,4.37
2023-04-10T17:33:29.630Z,3.77
2023-04-10T17:35:57.491Z,4.63
2023-04-10T17:38:26.693Z,4.40
2023-04-10T17:40:54.339Z,4.07
2023-04-10T17:43:22.606Z,4.03
2023-04-10T17:45:50.355Z,4.07
2023-04-10T17:48:18.424Z,4.60
2023-04-10T17:50:46.278Z,4.40
2023-04-10T17:53:14.026Z,4.40
2023-04-10T17:55:43.066Z,3.70
2023-04-10T17:58:10.793Z,4.20
2023-04-10T18:00:38.670Z,3.80
2023-04-10T18:03:06.447Z,4.00
2023-04-10T18:05:36.728Z,3.50
2023-04-10T18:08:04.466Z,4.10
2023-04-10T18:10:32.147Z,4.13
2023-04-10T18:13:01.278Z,4.63
2023-04-10T18:15:29.521Z,4.03
2023-04-10T18:17:57.313Z,3.93
2023-04-10T18:20:25.078Z,3.33
2023-04-10T18:22:52.837Z,3.60
2023-04-10T18:25:20.490Z,3.37
2023-04-10T18:28:09.772Z,3.30
2023-04-10T18:30:38.976Z,3.67
2023-04-10T18:33:10.709Z,3.63
2023-04-10T18:35:39.034Z,3.60
2023-04-10T18:38:06.797Z,3.90
2023-04-10T18:40:36.614Z,3.77
2023-04-10T18:43:04.307Z,4.10
2023-04-10T18:45:33.903Z,4.27
2023-04-10T18:48:03.030Z,4.03
2023-04-10T18:50:31.778Z,5.03
2023-04-10T18:52:59.432Z,5.07
2023-04-10T18:55:27.160Z,5.20
2023-04-10T18:57:55.117Z,5.07
2023-04-10T19:00:23.111Z,5.07
2023-04-10T19:02:51.023Z,4.90
2023-04-10T19:05:20.130Z,4.93
2023-04-10T19:08:00.622Z,4.73
2023-04-10T19:10:29.042Z,4.57
2023-04-10T19:12:57.368Z,4.67
2023-04-10T19:15:25.873Z,3.93
2023-04-10T19:17:54.129Z,4.40
2023-04-10T19:20:49.796Z,4.30
2023-04-10T19:23:11.768Z,4.07
2023-04-10T19:25:39.562Z,4.57
2023-04-10T19:28:07.489Z,4.60
2023-04-10T19:30:35.341Z,4.80
2023-04-10T19:33:03.071Z,4.30
2023-04-10T19:35:32.319Z,4.50
2023-04-10T19:38:00.138Z,4.50
2023-04-10T19:40:28.036Z,4.20
2023-04-10T19:42:57.455Z,4.40
2023-04-10T19:45:29.113Z,3.73
2023-04-10T19:47:57.431Z,3.90
2023-04-10T19:50:25.363Z,3.60
2023-04-10T19:52:54.385Z,4.17
2023-04-10T19:55:22.312Z,3.20
2023-04-10T19:57:50.654Z,4.00
2023-04-10T20:00:18.790Z,3.60
2023-04-10T20:02:46.645Z,3.63
2023-04-10T20:05:14.783Z,3.87
2023-04-10T20:07:42.574Z,4.40
2023-04-10T20:10:12.325Z,3.83
2023-04-10T20:12:40.030Z,4.50
2023-04-10T20:15:09.287Z,4.27
2023-04-10T20:17:38.490Z,4.43
2023-04-10T20:20:07.301Z,4.47
2023-04-10T20:22:34.974Z,5.20
2023-04-10T20:25:02.644Z,4.70
2023-04-10T20:27:31.660Z,5.30
2023-04-10T20:29:59.348Z,5.30
2023-04-10T20:32:27.029Z,5.10
2023-04-10T20:34:54.731Z,5.40
2023-04-10T20:37:22.873Z,4.77
2023-04-10T20:39:52.238Z,5.13
2023-04-10T20:42:19.978Z,5.90
2023-04-10T20:44:49.287Z,5.60
2023-04-10T20:47:16.987Z,5.63
2023-04-10T20:49:44.635Z,6.03
2023-04-10T20:52:12.375Z,6.00
2023-04-10T20:54:40.080Z,6.93
2023-04-10T20:57:07.948Z,6.20
2023-04-10T20:59:36.660Z,6.77
2023-04-10T21:02:05.934Z,6.43
2023-04-10T21:04:33.739Z,6.50
2023-04-10T21:07:01.518Z,6.83
2023-04-10T21:09:29.275Z,6.00
2023-04-10T21:11:57.684Z,5.90
2023-04-10T21:14:25.346Z,5.60
2023-04-10T21:16:53.050Z,5.93
2023-04-10T21:19:22.134Z,6.50
2023-04-10T21:21:49.871Z,5.37
2023-04-10T21:24:17.609Z,5.20
2023-04-10T21:26:45.785Z,5.50
2023-04-10T21:29:13.533Z,5.30
2023-04-10T21:31:41.335Z,5.77
2023-04-10T21:34:09.131Z,6.10
2023-04-10T21:36:39.029Z,5.83
2023-04-10T21:39:09.211Z,6.13
2023-04-10T21:41:37.315Z,5.00
2023-04-10T21:44:05.040Z,5.43
2023-04-10T21:46:33.158Z,5.20
2023-04-10T21:49:01.190Z,4.60
2023-04-10T21:51:29.121Z,5.57
2023-04-10T21:53:58.169Z,5.10
2023-04-10T21:56:25.934Z,4.53
2023-04-10T21:58:53.891Z,4.63
2023-04-10T22:01:21.863Z,5.07
2023-04-10T22:03:50.604Z,5.20
2023-04-10T22:06:18.608Z,4.77
2023-04-10T22:08:46.945Z,4.80
2023-04-10T22:11:16.007Z,5.20
2023-04-10T22:13:43.747Z,5.17
2023-04-10T22:16:11.475Z,4.70
2023-04-10T22:18:39.278Z,4.87
2023-04-10T22:21:07.447Z,4.40
2023-04-10T22:23:35.148Z,4.80
2023-04-10T22:26:02.830Z,4.70
2023-04-10T22:28:31.892Z,4.60
2023-04-10T22:30:59.699Z,4.93
2023-04-10T22:33:27.577Z,4.27
2023-04-10T22:35:55.379Z,4.53
2023-04-10T22:38:23.129Z,4.40
2023-04-10T22:40:50.862Z,5.10
2023-04-10T22:43:18.634Z,4.67
2023-04-10T22:45:47.909Z,4.93
2023-04-10T22:48:15.711Z,4.60
2023-04-10T22:50:43.503Z,4.00
2023-04-10T22:53:11.685Z,4.47
2023-04-10T22:55:39.407Z,4.37
2023-04-10T22:58:07.346Z,4.90
2023-04-10T23:00:35.346Z,4.80
2023-04-10T23:03:04.733Z,5.60
2023-04-10T23:05:33.023Z,5.50
2023-04-10T23:08:00.831Z,5.23
2023-04-10T23:10:28.572Z,5.23
2023-04-10T23:12:56.346Z,4.80
2023-04-10T23:15:24.085Z,4.57
2023-04-10T23:17:51.828Z,5.20
2023-04-10T23:20:21.001Z,4.83
2023-04-10T23:22:48.675Z,6.30
2023-04-10T23:25:16.502Z,5.23
2023-04-10T23:27:44.313Z,4.03
2023-04-10T23:30:12.573Z,5.03
2023-04-10T23:32:40.374Z,5.83
2023-04-10T23:35:08.530Z,5.93
2023-04-10T23:37:37.743Z,5.80
2023-04-10T23:40:06.168Z,2.50
2023-04-10T23:42:33.815Z,1.30
2023-04-10T23:45:01.585Z,1.27
2023-04-10T23:47:29.345Z,1.20
2023-04-10T23:49:57.111Z,1.57
2023-04-10T23:52:24.794Z,1.40
2023-04-10T23:54:56.517Z,1.60
2023-04-10T23:57:24.397Z,1.50
2023-04-10T23:59:52.265Z,1.50
